sensor_id;sensor_type;location;lat;lon;timestamp;temperature;humidity
14995;DHT22;7593;49.006;8.372;2023-04-25T00:01:27;8.30;99.90
14995;DHT22;7593;49.006;8.372;2023-04-25T00:03:54;8.20;99.90
14995;DHT22;7593;49.006;8.372;2023-04-25T00:06:21;8.20;99.90
14995;DHT22;7593;49.006;8.372;2023-04-25T00:08:52;8.20;99.90
14995;DHT22;7593;49.006;8.372;2023-04-25T00:11:20;8.10;99.90
14995;DHT22;7593;49.006;8.372;2023-04-25T00:13:47;8.10;99.90
14995;DHT22;7593;49.006;8.372;2023-04-25T00:16:15;8.10;99.90
14995;DHT22;7593;49.006;8.372;2023-04-25T00:18:42;8.00;99.90
14995;DHT22;7593;49.006;8.372;2023-04-25T00:21:09;8.00;99.90
14995;DHT22;7593;49.006;8.372;2023-04-25T00:23:35;8.00;99.90
14995;DHT22;7593;49.006;8.372;2023-04-25T00:26:03;8.00;99.90
14995;DHT22;7593;49.006;8.372;2023-04-25T00:28:31;8.00;99.90
14995;DHT22;7593;49.006;8.372;2023-04-25T00:30:58;7.90;99.90
14995;DHT22;7593;49.006;8.372;2023-04-25T00:33:25;8.00;99.90
14995;DHT22;7593;49.006;8.372;2023-04-25T00:35:51;8.00;99.90
14995;DHT22;7593;49.006;8.372;2023-04-25T00:38:18;8.00;99.90
14995;DHT22;7593;49.006;8.372;2023-04-25T00:40:45;8.10;99.90
14995;DHT22;7593;49.006;8.372;2023-04-25T00:43:11;8.10;99.90
14995;DHT22;7593;49.006;8.372;2023-04-25T00:45:40;8.10;99.90
14995;DHT22;7593;49.006;8.372;2023-04-25T00:48:06;8.10;99.90
14995;DHT22;7593;49.006;8.372;2023-04-25T00:50:33;8.20;99.90
14995;DHT22;7593;49.006;8.372;2023-04-25T00:53:00;8.20;99.90
14995;DHT22;7593;49.006;8.372;2023-04-25T00:55:28;8.20;99.90
14995;DHT22;7593;49.006;8.372;2023-04-25T00:57:56;8.20;99.90
14995;DHT22;7593;49.006;8.372;2023-04-25T01:00:23;8.20;99.90
14995;DHT22;7593;49.006;8.372;2023-04-25T01:02:52;8.20;99.90
14995;DHT22;7593;49.006;8.372;2023-04-25T01:05:19;8.20;99.90
14995;DHT22;7593;49.006;8.372;2023-04-25T01:07:46;8.20;99.90
14995;DHT22;7593;49.006;8.372;2023-04-25T01:10:13;8.20;99.90
14995;DHT22;7593;49.006;8.372;2023-04-25T01:12:41;8.30;99.90
14995;DHT22;7593;49.006;8.372;2023-04-25T01:15:08;8.30;99.90
14995;DHT22;7593;49.006;8.372;2023-04-25T01:17:35;8.30;99.90
14995;DHT22;7593;49.006;8.372;2023-04-25T01:20:05;8.30;99.90
14995;DHT22;7593;49.006;8.372;2023-04-25T01:22:36;8.30;99.90
14995;DHT22;7593;49.006;8.372;2023-04-25T01:25:04;8.30;99.90
14995;DHT22;7593;49.006;8.372;2023-04-25T01:27:31;8.30;99.90
14995;DHT22;7593;49.006;8.372;2023-04-25T01:29:58;8.20;99.90
14995;DHT22;7593;49.006;8.372;2023-04-25T01:32:25;8.20;99.90
14995;DHT22;7593;49.006;8.372;2023-04-25T01:34:53;8.20;99.90
14995;DHT22;7593;49.006;8.372;2023-04-25T01:37:20;8.20;99.90
14995;DHT22;7593;49.006;8.372;2023-04-25T01:39:48;8.20;99.90
14995;DHT22;7593;49.006;8.372;2023-04-25T01:42:15;8.30;99.90
14995;DHT22;7593;49.006;8.372;2023-04-25T01:44:42;8.30;99.90
14995;DHT22;7593;49.006;8.372;2023-04-25T01:47:09;8.30;99.90
14995;DHT22;7593;49.006;8.372;2023-04-25T01:49:36;8.30;99.90
14995;DHT22;7593;49.006;8.372;2023-04-25T01:52:03;8.30;99.90
14995;DHT22;7593;49.006;8.372;2023-04-25T01:54:30;8.30;99.90
14995;DHT22;7593;49.006;8.372;2023-04-25T01:56:58;8.30;99.90
14995;DHT22;7593;49.006;8.372;2023-04-25T01:59:25;8.40;99.90
14995;DHT22;7593;49.006;8.372;2023-04-25T02:01:52;8.40;99.90
14995;DHT22;7593;49.006;8.372;2023-04-25T02:04:19;8.40;99.90
14995;DHT22;7593;49.006;8.372;2023-04-25T02:06:46;8.40;99.90
14995;DHT22;7593;49.006;8.372;2023-04-25T02:09:13;8.40;99.90
14995;DHT22;7593;49.006;8.372;2023-04-25T02:11:39;8.40;99.90
14995;DHT22;7593;49.006;8.372;2023-04-25T02:14:08;8.40;99.90
14995;DHT22;7593;49.006;8.372;2023-04-25T02:16:34;8.40;99.90
14995;DHT22;7593;49.006;8.372;2023-04-25T02:19:01;8.40;99.90
14995;DHT22;7593;49.006;8.372;2023-04-25T02:21:28;8.40;99.90
14995;DHT22;7593;49.006;8.372;2023-04-25T02:23:56;8.40;99.90
14995;DHT22;7593;49.006;8.372;2023-04-25T02:26:22;8.40;99.90
14995;DHT22;7593;49.006;8.372;2023-04-25T02:28:50;8.40;99.90
14995;DHT22;7593;49.006;8.372;2023-04-25T02:31:18;8.30;99.90
14995;DHT22;7593;49.006;8.372;2023-04-25T02:33:47;8.20;99.90
14995;DHT22;7593;49.006;8.372;2023-04-25T02:36:14;8.10;99.90
14995;DHT22;7593;49.006;8.372;2023-04-25T02:38:40;8.00;99.90
14995;DHT22;7593;49.006;8.372;2023-04-25T02:41:07;8.00;99.90
14995;DHT22;7593;49.006;8.372;2023-04-25T02:43:34;7.90;99.90
14995;DHT22;7593;49.006;8.372;2023-04-25T02:46:01;7.90;99.90
14995;DHT22;7593;49.006;8.372;2023-04-25T02:48:29;7.90;99.90
14995;DHT22;7593;49.006;8.372;2023-04-25T02:50:56;7.90;99.90
14995;DHT22;7593;49.006;8.372;2023-04-25T02:53:22;7.90;99.90
14995;DHT22;7593;49.006;8.372;2023-04-25T02:55:49;7.90;99.90
14995;DHT22;7593;49.006;8.372;2023-04-25T02:58:18;7.90;99.90
14995;DHT22;7593;49.006;8.372;2023-04-25T03:00:45;7.90;99.90
14995;DHT22;7593;49.006;8.372;2023-04-25T03:03:11;7.90;99.90
14995;DHT22;7593;49.006;8.372;2023-04-25T03:05:39;7.90;99.90
14995;DHT22;7593;49.006;8.372;2023-04-25T03:08:06;7.80;99.90
14995;DHT22;7593;49.006;8.372;2023-04-25T03:10:33;7.80;99.90
14995;DHT22;7593;49.006;8.372;2023-04-25T03:13:00;7.80;99.90
14995;DHT22;7593;49.006;8.372;2023-04-25T03:15:27;7.80;99.90
14995;DHT22;7593;49.006;8.372;2023-04-25T03:17:53;7.80;99.90
14995;DHT22;7593;49.006;8.372;2023-04-25T03:20:20;7.80;99.90
14995;DHT22;7593;49.006;8.372;2023-04-25T03:22:48;7.90;99.90
14995;DHT22;7593;49.006;8.372;2023-04-25T03:25:15;7.90;99.90
14995;DHT22;7593;49.006;8.372;2023-04-25T03:27:42;7.90;99.90
14995;DHT22;7593;49.006;8.372;2023-04-25T03:30:09;8.00;99.90
14995;DHT22;7593;49.006;8.372;2023-04-25T03:32:36;8.00;99.90
14995;DHT22;7593;49.006;8.372;2023-04-25T03:35:03;8.00;99.90
14995;DHT22;7593;49.006;8.372;2023-04-25T03:37:30;8.00;99.90
14995;DHT22;7593;49.006;8.372;2023-04-25T03:39:58;8.00;99.90
14995;DHT22;7593;49.006;8.372;2023-04-25T03:42:25;8.10;99.90
14995;DHT22;7593;49.006;8.372;2023-04-25T03:44:52;8.10;99.90
14995;DHT22;7593;49.006;8.372;2023-04-25T03:47:19;8.10;99.90
14995;DHT22;7593;49.006;8.372;2023-04-25T03:49:45;8.10;99.90
14995;DHT22;7593;49.006;8.372;2023-04-25T03:52:12;8.10;99.90
14995;DHT22;7593;49.006;8.372;2023-04-25T03:54:39;8.10;99.90
14995;DHT22;7593;49.006;8.372;2023-04-25T03:57:07;8.10;99.90
14995;DHT22;7593;49.006;8.372;2023-04-25T03:59:34;8.10;99.90
14995;DHT22;7593;49.006;8.372;2023-04-25T04:02:00;8.10;99.90
14995;DHT22;7593;49.006;8.372;2023-04-25T04:04:27;8.10;99.90
14995;DHT22;7593;49.006;8.372;2023-04-25T04:06:54;8.10;99.90
14995;DHT22;7593;49.006;8.372;2023-04-25T04:09:20;8.10;99.90
14995;DHT22;7593;49.006;8.372;2023-04-25T04:11:47;8.10;99.90
14995;DHT22;7593;49.006;8.372;2023-04-25T04:14:16;8.10;99.90
14995;DHT22;7593;49.006;8.372;2023-04-25T04:16:43;8.20;99.90
14995;DHT22;7593;49.006;8.372;2023-04-25T04:19:10;8.10;99.90
14995;DHT22;7593;49.006;8.372;2023-04-25T04:21:37;8.10;99.90
14995;DHT22;7593;49.006;8.372;2023-04-25T04:24:04;8.20;99.90
14995;DHT22;7593;49.006;8.372;2023-04-25T04:26:32;8.10;99.90
14995;DHT22;7593;49.006;8.372;2023-04-25T04:28:59;8.20;99.90
14995;DHT22;7593;49.006;8.372;2023-04-25T04:31:28;8.10;99.90
14995;DHT22;7593;49.006;8.372;2023-04-25T04:33:55;8.20;99.90
14995;DHT22;7593;49.006;8.372;2023-04-25T04:36:22;8.20;99.90
14995;DHT22;7593;49.006;8.372;2023-04-25T04:38:51;8.20;99.90
14995;DHT22;7593;49.006;8.372;2023-04-25T04:41:18;8.20;99.90
14995;DHT22;7593;49.006;8.372;2023-04-25T04:43:45;8.20;99.90
14995;DHT22;7593;49.006;8.372;2023-04-25T04:46:12;8.20;99.90
14995;DHT22;7593;49.006;8.372;2023-04-25T04:48:41;8.30;99.90
14995;DHT22;7593;49.006;8.372;2023-04-25T04:51:08;8.30;99.90
14995;DHT22;7593;49.006;8.372;2023-04-25T04:53:34;8.30;99.90
14995;DHT22;7593;49.006;8.372;2023-04-25T04:56:01;8.30;99.90
14995;DHT22;7593;49.006;8.372;2023-04-25T04:58:28;8.30;99.90
14995;DHT22;7593;49.006;8.372;2023-04-25T05:00:55;8.20;99.90
14995;DHT22;7593;49.006;8.372;2023-04-25T05:03:22;8.20;99.90
14995;DHT22;7593;49.006;8.372;2023-04-25T05:05:51;8.20;99.90
14995;DHT22;7593;49.006;8.372;2023-04-25T05:08:17;8.20;99.90
14995;DHT22;7593;49.006;8.372;2023-04-25T05:10:44;8.10;99.90
14995;DHT22;7593;49.006;8.372;2023-04-25T05:13:11;8.10;99.90
14995;DHT22;7593;49.006;8.372;2023-04-25T05:15:38;8.00;99.90
14995;DHT22;7593;49.006;8.372;2023-04-25T05:18:04;8.00;99.90
14995;DHT22;7593;49.006;8.372;2023-04-25T05:20:31;8.10;99.90
14995;DHT22;7593;49.006;8.372;2023-04-25T05:23:00;8.10;99.90
14995;DHT22;7593;49.006;8.372;2023-04-25T05:25:26;8.10;99.90
14995;DHT22;7593;49.006;8.372;2023-04-25T05:27:53;8.20;99.90
14995;DHT22;7593;49.006;8.372;2023-04-25T05:30:20;8.20;99.90
14995;DHT22;7593;49.006;8.372;2023-04-25T05:32:47;8.20;99.90
14995;DHT22;7593;49.006;8.372;2023-04-25T05:35:13;8.30;99.90
14995;DHT22;7593;49.006;8.372;2023-04-25T05:37:40;8.30;99.90
14995;DHT22;7593;49.006;8.372;2023-04-25T05:40:10;8.40;99.90
14995;DHT22;7593;49.006;8.372;2023-04-25T05:42:36;8.40;99.90
14995;DHT22;7593;49.006;8.372;2023-04-25T05:45:04;8.50;99.90
14995;DHT22;7593;49.006;8.372;2023-04-25T05:47:31;8.50;99.90
14995;DHT22;7593;49.006;8.372;2023-04-25T05:49:58;8.60;99.90
14995;DHT22;7593;49.006;8.372;2023-04-25T05:52:24;8.60;99.90
14995;DHT22;7593;49.006;8.372;2023-04-25T05:54:51;8.70;99.90
14995;DHT22;7593;49.006;8.372;2023-04-25T05:57:22;8.70;99.90
14995;DHT22;7593;49.006;8.372;2023-04-25T05:59:49;8.70;99.90
14995;DHT22;7593;49.006;8.372;2023-04-25T06:02:16;8.70;99.90
14995;DHT22;7593;49.006;8.372;2023-04-25T06:04:43;8.70;99.90
14995;DHT22;7593;49.006;8.372;2023-04-25T06:07:10;8.60;99.90
14995;DHT22;7593;49.006;8.372;2023-04-25T06:09:37;8.60;99.90
14995;DHT22;7593;49.006;8.372;2023-04-25T06:12:05;8.50;99.90
14995;DHT22;7593;49.006;8.372;2023-04-25T06:14:33;8.50;99.90
14995;DHT22;7593;49.006;8.372;2023-04-25T06:17:00;8.40;99.90
14995;DHT22;7593;49.006;8.372;2023-04-25T06:19:32;8.40;99.90
14995;DHT22;7593;49.006;8.372;2023-04-25T06:21:58;8.40;99.90
14995;DHT22;7593;49.006;8.372;2023-04-25T06:24:25;8.30;99.90
14995;DHT22;7593;49.006;8.372;2023-04-25T06:26:52;8.30;99.90
14995;DHT22;7593;49.006;8.372;2023-04-25T06:29:19;8.30;99.90
14995;DHT22;7593;49.006;8.372;2023-04-25T06:31:47;8.30;99.90
14995;DHT22;7593;49.006;8.372;2023-04-25T06:34:15;8.20;99.90
14995;DHT22;7593;49.006;8.372;2023-04-25T06:36:42;8.10;99.90
14995;DHT22;7593;49.006;8.372;2023-04-25T06:39:09;8.00;99.90
14995;DHT22;7593;49.006;8.372;2023-04-25T06:41:36;7.90;99.90
14995;DHT22;7593;49.006;8.372;2023-04-25T06:44:03;7.90;99.90
14995;DHT22;7593;49.006;8.372;2023-04-25T06:46:30;8.00;99.90
14995;DHT22;7593;49.006;8.372;2023-04-25T06:48:58;7.90;99.90
14995;DHT22;7593;49.006;8.372;2023-04-25T06:51:25;7.90;99.90
14995;DHT22;7593;49.006;8.372;2023-04-25T06:53:54;7.80;99.90
14995;DHT22;7593;49.006;8.372;2023-04-25T06:56:21;7.80;99.90
14995;DHT22;7593;49.006;8.372;2023-04-25T06:58:48;7.80;99.90
14995;DHT22;7593;49.006;8.372;2023-04-25T07:01:15;7.80;99.90
14995;DHT22;7593;49.006;8.372;2023-04-25T07:03:42;7.70;99.90
14995;DHT22;7593;49.006;8.372;2023-04-25T07:06:10;7.70;99.90
14995;DHT22;7593;49.006;8.372;2023-04-25T07:08:37;7.80;99.90
14995;DHT22;7593;49.006;8.372;2023-04-25T07:11:04;7.80;99.90
14995;DHT22;7593;49.006;8.372;2023-04-25T07:13:30;7.80;99.90
14995;DHT22;7593;49.006;8.372;2023-04-25T07:15:57;7.90;99.90
14995;DHT22;7593;49.006;8.372;2023-04-25T07:18:24;8.00;99.90
14995;DHT22;7593;49.006;8.372;2023-04-25T07:20:51;8.10;99.90
14995;DHT22;7593;49.006;8.372;2023-04-25T07:23:19;8.10;99.90
14995;DHT22;7593;49.006;8.372;2023-04-25T07:25:46;8.00;99.90
14995;DHT22;7593;49.006;8.372;2023-04-25T07:28:13;8.00;99.90
14995;DHT22;7593;49.006;8.372;2023-04-25T07:30:40;8.00;99.90
14995;DHT22;7593;49.006;8.372;2023-04-25T07:33:07;7.90;99.90
14995;DHT22;7593;49.006;8.372;2023-04-25T07:35:34;7.90;99.90
14995;DHT22;7593;49.006;8.372;2023-04-25T07:38:02;7.90;99.90
14995;DHT22;7593;49.006;8.372;2023-04-25T07:40:30;7.90;99.90
14995;DHT22;7593;49.006;8.372;2023-04-25T07:42:56;7.80;99.90
14995;DHT22;7593;49.006;8.372;2023-04-25T07:45:23;7.70;99.90
14995;DHT22;7593;49.006;8.372;2023-04-25T07:47:50;7.70;99.90
14995;DHT22;7593;49.006;8.372;2023-04-25T07:50:17;7.70;99.90
14995;DHT22;7593;49.006;8.372;2023-04-25T07:52:44;7.60;99.90
14995;DHT22;7593;49.006;8.372;2023-04-25T07:55:10;7.70;99.90
14995;DHT22;7593;49.006;8.372;2023-04-25T07:57:39;7.80;99.90
14995;DHT22;7593;49.006;8.372;2023-04-25T08:00:09;7.80;99.90
14995;DHT22;7593;49.006;8.372;2023-04-25T08:02:37;7.80;99.90
14995;DHT22;7593;49.006;8.372;2023-04-25T08:05:04;7.70;99.90
14995;DHT22;7593;49.006;8.372;2023-04-25T08:07:33;7.80;99.90
14995;DHT22;7593;49.006;8.372;2023-04-25T08:10:00;7.70;99.90
14995;DHT22;7593;49.006;8.372;2023-04-25T08:12:27;7.80;99.90
14995;DHT22;7593;49.006;8.372;2023-04-25T08:14:55;7.70;99.90
14995;DHT22;7593;49.006;8.372;2023-04-25T08:17:22;7.70;99.90
14995;DHT22;7593;49.006;8.372;2023-04-25T08:19:49;7.70;99.90
14995;DHT22;7593;49.006;8.372;2023-04-25T08:22:15;7.70;99.90
14995;DHT22;7593;49.006;8.372;2023-04-25T08:24:42;7.70;99.90
14995;DHT22;7593;49.006;8.372;2023-04-25T08:27:09;7.70;99.90
14995;DHT22;7593;49.006;8.372;2023-04-25T08:29:36;7.80;99.90
14995;DHT22;7593;49.006;8.372;2023-04-25T08:32:04;7.80;99.90
14995;DHT22;7593;49.006;8.372;2023-04-25T08:34:31;7.80;99.90
14995;DHT22;7593;49.006;8.372;2023-04-25T08:36:58;7.80;99.90
14995;DHT22;7593;49.006;8.372;2023-04-25T08:39:25;7.80;99.90
14995;DHT22;7593;49.006;8.372;2023-04-25T08:41:52;7.80;99.90
14995;DHT22;7593;49.006;8.372;2023-04-25T08:44:19;7.90;99.90
14995;DHT22;7593;49.006;8.372;2023-04-25T08:46:47;7.90;99.90
14995;DHT22;7593;49.006;8.372;2023-04-25T08:49:17;8.00;99.90
14995;DHT22;7593;49.006;8.372;2023-04-25T08:51:45;8.00;99.90
14995;DHT22;7593;49.006;8.372;2023-04-25T08:54:14;8.00;99.90
14995;DHT22;7593;49.006;8.372;2023-04-25T08:56:44;8.00;99.90
14995;DHT22;7593;49.006;8.372;2023-04-25T08:59:12;7.90;99.90
14995;DHT22;7593;49.006;8.372;2023-04-25T09:01:39;7.90;99.90
14995;DHT22;7593;49.006;8.372;2023-04-25T09:04:06;7.90;99.90
14995;DHT22;7593;49.006;8.372;2023-04-25T09:06:34;7.90;99.90
14995;DHT22;7593;49.006;8.372;2023-04-25T09:09:03;7.80;99.90
14995;DHT22;7593;49.006;8.372;2023-04-25T09:11:31;7.80;99.90
14995;DHT22;7593;49.006;8.372;2023-04-25T09:14:11;7.80;99.90
14995;DHT22;7593;49.006;8.372;2023-04-25T09:16:57;7.80;99.90
14995;DHT22;7593;49.006;8.372;2023-04-25T09:19:26;7.70;99.90
14995;DHT22;7593;49.006;8.372;2023-04-25T09:21:56;7.70;99.90
14995;DHT22;7593;49.006;8.372;2023-04-25T09:24:38;7.60;99.90
14995;DHT22;7593;49.006;8.372;2023-04-25T09:27:07;7.60;99.90
14995;DHT22;7593;49.006;8.372;2023-04-25T09:29:35;7.50;99.90
14995;DHT22;7593;49.006;8.372;2023-04-25T09:32:15;7.50;99.90
14995;DHT22;7593;49.006;8.372;2023-04-25T09:34:44;7.50;99.90
14995;DHT22;7593;49.006;8.372;2023-04-25T09:37:17;7.50;99.90
14995;DHT22;7593;49.006;8.372;2023-04-25T09:39:44;7.50;99.90
14995;DHT22;7593;49.006;8.372;2023-04-25T09:42:12;7.50;99.90
14995;DHT22;7593;49.006;8.372;2023-04-25T09:44:42;7.50;99.90
14995;DHT22;7593;49.006;8.372;2023-04-25T09:47:10;7.60;99.90
14995;DHT22;7593;49.006;8.372;2023-04-25T09:49:40;7.60;99.90
14995;DHT22;7593;49.006;8.372;2023-04-25T09:52:07;7.50;99.90
14995;DHT22;7593;49.006;8.372;2023-04-25T09:54:36;7.50;99.90
14995;DHT22;7593;49.006;8.372;2023-04-25T09:57:09;7.50;99.90
14995;DHT22;7593;49.006;8.372;2023-04-25T09:59:39;7.40;99.90
14995;DHT22;7593;49.006;8.372;2023-04-25T10:02:07;7.30;99.90
14995;DHT22;7593;49.006;8.372;2023-04-25T10:04:35;7.30;99.90
14995;DHT22;7593;49.006;8.372;2023-04-25T10:07:03;7.30;99.90
14995;DHT22;7593;49.006;8.372;2023-04-25T10:09:32;7.30;99.90
14995;DHT22;7593;49.006;8.372;2023-04-25T10:12:03;7.30;99.90
14995;DHT22;7593;49.006;8.372;2023-04-25T10:14:30;7.30;99.90
14995;DHT22;7593;49.006;8.372;2023-04-25T10:16:57;7.40;99.90
14995;DHT22;7593;49.006;8.372;2023-04-25T10:19:24;7.50;99.90
14995;DHT22;7593;49.006;8.372;2023-04-25T10:21:54;7.60;99.90
14995;DHT22;7593;49.006;8.372;2023-04-25T10:24:22;7.70;99.90
14995;DHT22;7593;49.006;8.372;2023-04-25T10:26:50;7.80;99.90
14995;DHT22;7593;49.006;8.372;2023-04-25T10:29:24;7.90;99.90
14995;DHT22;7593;49.006;8.372;2023-04-25T10:31:50;8.00;99.90
14995;DHT22;7593;49.006;8.372;2023-04-25T10:34:18;8.10;99.90
14995;DHT22;7593;49.006;8.372;2023-04-25T10:36:50;8.20;99.90
14995;DHT22;7593;49.006;8.372;2023-04-25T10:39:22;8.20;99.90
14995;DHT22;7593;49.006;8.372;2023-04-25T10:41:53;8.30;99.90
14995;DHT22;7593;49.006;8.372;2023-04-25T10:44:20;8.30;99.90
14995;DHT22;7593;49.006;8.372;2023-04-25T10:46:48;8.40;99.90
14995;DHT22;7593;49.006;8.372;2023-04-25T10:49:32;8.30;99.90
14995;DHT22;7593;49.006;8.372;2023-04-25T10:52:27;8.30;99.90
14995;DHT22;7593;49.006;8.372;2023-04-25T10:54:56;8.40;99.90
14995;DHT22;7593;49.006;8.372;2023-04-25T10:57:30;8.40;99.90
14995;DHT22;7593;49.006;8.372;2023-04-25T11:00:09;8.40;99.90
14995;DHT22;7593;49.006;8.372;2023-04-25T11:02:41;8.50;99.90
14995;DHT22;7593;49.006;8.372;2023-04-25T11:05:08;8.50;99.90
14995;DHT22;7593;49.006;8.372;2023-04-25T11:07:39;8.40;99.90
14995;DHT22;7593;49.006;8.372;2023-04-25T11:10:10;8.30;99.90
14995;DHT22;7593;49.006;8.372;2023-04-25T11:12:37;8.30;99.90
14995;DHT22;7593;49.006;8.372;2023-04-25T11:15:04;8.30;99.90
14995;DHT22;7593;49.006;8.372;2023-04-25T11:17:32;8.20;99.90
14995;DHT22;7593;49.006;8.372;2023-04-25T11:20:00;8.20;99.90
14995;DHT22;7593;49.006;8.372;2023-04-25T11:22:31;8.10;99.90
14995;DHT22;7593;49.006;8.372;2023-04-25T11:25:01;8.10;99.90
14995;DHT22;7593;49.006;8.372;2023-04-25T11:27:30;8.10;99.90
14995;DHT22;7593;49.006;8.372;2023-04-25T11:29:57;8.10;99.90
14995;DHT22;7593;49.006;8.372;2023-04-25T11:32:24;8.10;99.90
14995;DHT22;7593;49.006;8.372;2023-04-25T11:34:52;8.10;99.90
14995;DHT22;7593;49.006;8.372;2023-04-25T11:37:21;8.20;99.90
14995;DHT22;7593;49.006;8.372;2023-04-25T11:39:48;8.30;99.90
14995;DHT22;7593;49.006;8.372;2023-04-25T11:42:15;8.30;99.90
14995;DHT22;7593;49.006;8.372;2023-04-25T11:44:42;8.30;99.90
14995;DHT22;7593;49.006;8.372;2023-04-25T11:47:10;8.30;99.90
14995;DHT22;7593;49.006;8.372;2023-04-25T11:49:36;8.20;99.90
14995;DHT22;7593;49.006;8.372;2023-04-25T11:52:06;8.20;99.90
14995;DHT22;7593;49.006;8.372;2023-04-25T11:54:36;8.20;99.90
14995;DHT22;7593;49.006;8.372;2023-04-25T11:57:04;8.10;99.90
14995;DHT22;7593;49.006;8.372;2023-04-25T11:59:30;8.00;99.90
14995;DHT22;7593;49.006;8.372;2023-04-25T12:01:57;8.00;99.90
14995;DHT22;7593;49.006;8.372;2023-04-25T12:04:30;7.90;99.90
14995;DHT22;7593;49.006;8.372;2023-04-25T12:06:57;7.90;99.90
14995;DHT22;7593;49.006;8.372;2023-04-25T12:09:28;7.90;99.90
14995;DHT22;7593;49.006;8.372;2023-04-25T12:11:58;7.90;99.90
14995;DHT22;7593;49.006;8.372;2023-04-25T12:14:26;8.00;99.90
14995;DHT22;7593;49.006;8.372;2023-04-25T12:16:55;8.00;99.90
14995;DHT22;7593;49.006;8.372;2023-04-25T12:19:23;8.00;99.90
14995;DHT22;7593;49.006;8.372;2023-04-25T12:21:50;8.00;99.90
14995;DHT22;7593;49.006;8.372;2023-04-25T12:24:21;8.20;99.90
14995;DHT22;7593;49.006;8.372;2023-04-25T12:26:52;8.40;99.90
14995;DHT22;7593;49.006;8.372;2023-04-25T12:29:23;8.70;99.90
14995;DHT22;7593;49.006;8.372;2023-04-25T12:31:51;9.00;99.90
14995;DHT22;7593;49.006;8.372;2023-04-25T12:34:18;9.10;99.90
14995;DHT22;7593;49.006;8.372;2023-04-25T12:36:45;9.00;99.90
14995;DHT22;7593;49.006;8.372;2023-04-25T12:39:15;9.00;99.90
14995;DHT22;7593;49.006;8.372;2023-04-25T12:41:42;9.00;99.90
14995;DHT22;7593;49.006;8.372;2023-04-25T12:44:09;9.20;99.90
14995;DHT22;7593;49.006;8.372;2023-04-25T12:46:38;9.10;99.90
14995;DHT22;7593;49.006;8.372;2023-04-25T12:49:06;9.10;99.90
14995;DHT22;7593;49.006;8.372;2023-04-25T12:51:33;9.10;99.90
14995;DHT22;7593;49.006;8.372;2023-04-25T12:54:01;9.10;99.90
14995;DHT22;7593;49.006;8.372;2023-04-25T12:56:28;9.10;99.90
14995;DHT22;7593;49.006;8.372;2023-04-25T12:58:55;9.10;99.90
14995;DHT22;7593;49.006;8.372;2023-04-25T13:01:23;9.20;99.90
14995;DHT22;7593;49.006;8.372;2023-04-25T13:03:51;9.20;99.90
14995;DHT22;7593;49.006;8.372;2023-04-25T13:06:19;9.30;99.90
14995;DHT22;7593;49.006;8.372;2023-04-25T13:08:46;9.30;99.90
14995;DHT22;7593;49.006;8.372;2023-04-25T13:11:13;9.40;99.90
14995;DHT22;7593;49.006;8.372;2023-04-25T13:13:41;9.50;99.90
14995;DHT22;7593;49.006;8.372;2023-04-25T13:16:08;9.50;99.90
14995;DHT22;7593;49.006;8.372;2023-04-25T13:18:35;9.60;99.90
14995;DHT22;7593;49.006;8.372;2023-04-25T13:21:03;9.80;99.90
14995;DHT22;7593;49.006;8.372;2023-04-25T13:23:30;9.90;99.90
14995;DHT22;7593;49.006;8.372;2023-04-25T13:25:57;9.90;99.90
14995;DHT22;7593;49.006;8.372;2023-04-25T13:28:24;9.90;99.90
14995;DHT22;7593;49.006;8.372;2023-04-25T13:30:51;9.80;99.90
14995;DHT22;7593;49.006;8.372;2023-04-25T13:33:18;9.90;99.90
14995;DHT22;7593;49.006;8.372;2023-04-25T13:35:46;10.10;99.90
14995;DHT22;7593;49.006;8.372;2023-04-25T13:38:20;10.50;99.90
14995;DHT22;7593;49.006;8.372;2023-04-25T13:40:48;10.70;99.90
14995;DHT22;7593;49.006;8.372;2023-04-25T13:43:15;10.90;99.90
14995;DHT22;7593;49.006;8.372;2023-04-25T13:45:42;11.10;99.90
14995;DHT22;7593;49.006;8.372;2023-04-25T13:48:09;11.10;99.90
14995;DHT22;7593;49.006;8.372;2023-04-25T13:50:36;11.10;99.90
14995;DHT22;7593;49.006;8.372;2023-04-25T13:53:02;10.90;99.90
14995;DHT22;7593;49.006;8.372;2023-04-25T13:55:30;10.80;99.90
14995;DHT22;7593;49.006;8.372;2023-04-25T13:57:57;10.50;99.90
14995;DHT22;7593;49.006;8.372;2023-04-25T14:00:24;10.60;99.90
14995;DHT22;7593;49.006;8.372;2023-04-25T14:02:52;10.70;99.90
14995;DHT22;7593;49.006;8.372;2023-04-25T14:05:19;10.60;99.90
14995;DHT22;7593;49.006;8.372;2023-04-25T14:07:45;10.50;99.90
14995;DHT22;7593;49.006;8.372;2023-04-25T14:10:12;10.40;99.90
14995;DHT22;7593;49.006;8.372;2023-04-25T14:12:40;10.40;99.90
14995;DHT22;7593;49.006;8.372;2023-04-25T14:15:08;10.40;99.90
14995;DHT22;7593;49.006;8.372;2023-04-25T14:17:35;10.40;99.90
14995;DHT22;7593;49.006;8.372;2023-04-25T14:20:01;10.60;99.90
14995;DHT22;7593;49.006;8.372;2023-04-25T14:22:31;10.60;99.90
14995;DHT22;7593;49.006;8.372;2023-04-25T14:24:57;10.50;99.90
14995;DHT22;7593;49.006;8.372;2023-04-25T14:27:25;10.50;99.90
14995;DHT22;7593;49.006;8.372;2023-04-25T14:29:53;10.30;99.90
14995;DHT22;7593;49.006;8.372;2023-04-25T14:32:20;10.30;99.90
14995;DHT22;7593;49.006;8.372;2023-04-25T14:34:47;10.50;99.90
14995;DHT22;7593;49.006;8.372;2023-04-25T14:37:15;10.60;99.90
14995;DHT22;7593;49.006;8.372;2023-04-25T14:39:42;10.70;99.90
14995;DHT22;7593;49.006;8.372;2023-04-25T14:42:08;10.80;99.90
14995;DHT22;7593;49.006;8.372;2023-04-25T14:44:37;10.90;99.90
14995;DHT22;7593;49.006;8.372;2023-04-25T14:47:07;10.60;99.90
14995;DHT22;7593;49.006;8.372;2023-04-25T14:49:33;10.50;99.90
14995;DHT22;7593;49.006;8.372;2023-04-25T14:52:00;10.40;99.90
14995;DHT22;7593;49.006;8.372;2023-04-25T14:54:27;10.20;99.90
14995;DHT22;7593;49.006;8.372;2023-04-25T14:56:54;10.00;99.90
14995;DHT22;7593;49.006;8.372;2023-04-25T14:59:21;10.00;99.90
14995;DHT22;7593;49.006;8.372;2023-04-25T15:01:47;10.10;99.90
14995;DHT22;7593;49.006;8.372;2023-04-25T15:04:16;10.10;99.90
14995;DHT22;7593;49.006;8.372;2023-04-25T15:06:42;10.00;99.90
14995;DHT22;7593;49.006;8.372;2023-04-25T15:09:09;10.00;99.90
14995;DHT22;7593;49.006;8.372;2023-04-25T15:11:37;10.00;99.90
14995;DHT22;7593;49.006;8.372;2023-04-25T15:14:04;10.10;99.90
14995;DHT22;7593;49.006;8.372;2023-04-25T15:16:31;10.10;99.90
14995;DHT22;7593;49.006;8.372;2023-04-25T15:18:58;9.90;99.90
14995;DHT22;7593;49.006;8.372;2023-04-25T15:21:26;9.80;99.90
14995;DHT22;7593;49.006;8.372;2023-04-25T15:23:53;9.60;99.90
14995;DHT22;7593;49.006;8.372;2023-04-25T15:26:20;9.50;99.90
14995;DHT22;7593;49.006;8.372;2023-04-25T15:28:47;9.30;99.90
14995;DHT22;7593;49.006;8.372;2023-04-25T15:31:14;9.10;99.90
14995;DHT22;7593;49.006;8.372;2023-04-25T15:33:41;8.90;99.90
14995;DHT22;7593;49.006;8.372;2023-04-25T15:36:08;8.70;99.90
14995;DHT22;7593;49.006;8.372;2023-04-25T15:38:37;8.60;99.90
14995;DHT22;7593;49.006;8.372;2023-04-25T15:41:04;8.60;99.90
14995;DHT22;7593;49.006;8.372;2023-04-25T15:43:31;8.60;99.90
14995;DHT22;7593;49.006;8.372;2023-04-25T15:46:01;8.60;99.90
14995;DHT22;7593;49.006;8.372;2023-04-25T15:48:27;8.60;99.90
14995;DHT22;7593;49.006;8.372;2023-04-25T15:50:54;8.50;99.90
14995;DHT22;7593;49.006;8.372;2023-04-25T15:53:21;8.50;99.90
14995;DHT22;7593;49.006;8.372;2023-04-25T15:55:49;8.40;99.90
14995;DHT22;7593;49.006;8.372;2023-04-25T15:58:16;8.30;99.90
14995;DHT22;7593;49.006;8.372;2023-04-25T16:00:43;8.30;99.90
14995;DHT22;7593;49.006;8.372;2023-04-25T16:03:13;8.50;99.90